createdAt,value
2023-03-18T00:02:02.237Z,12.50
2023-03-18T00:04:29.475Z,12.50
2023-03-18T00:06:57.034Z,12.50
2023-03-18T00:09:24.127Z,12.40
2023-03-18T00:11:51.080Z,12.30
2023-03-18T00:14:19.254Z,12.30
2023-03-18T00:16:46.004Z,12.30
2023-03-18T00:19:13.044Z,12.30
2023-03-18T00:21:39.949Z,12.20
2023-03-18T00:24:07.414Z,12.20
2023-03-18T00:26:34.291Z,12.20
2023-03-18T00:29:02.136Z,12.10
2023-03-18T00:31:29.742Z,12.10
2023-03-18T00:33:57.900Z,12.00
2023-03-18T00:36:26.168Z,12.00
2023-03-18T00:38:57.782Z,11.90
2023-03-18T00:41:30.351Z,11.90
2023-03-18T00:43:57.173Z,11.90
2023-03-18T00:46:35.082Z,11.80
2023-03-18T00:49:06.214Z,11.80
2023-03-18T00:51:36.574Z,11.80
2023-03-18T00:54:07.938Z,11.80
2023-03-18T00:56:37.595Z,11.70
2023-03-18T00:59:07.476Z,11.70
2023-03-18T01:01:36.482Z,11.70
2023-03-18T01:04:04.411Z,11.80
2023-03-18T01:06:34.622Z,11.80
2023-03-18T01:09:04.698Z,11.80
2023-03-18T01:11:33.227Z,11.80
2023-03-18T01:14:00.586Z,11.90
2023-03-18T01:16:29.766Z,11.80
2023-03-18T01:18:57.250Z,11.70
2023-03-18T01:21:24.143Z,11.70
2023-03-18T01:23:55.325Z,11.70
2023-03-18T01:26:23.013Z,11.70
2023-03-18T01:28:50.010Z,11.70
2023-03-18T01:31:16.984Z,11.70
2023-03-18T01:33:47.674Z,11.70
2023-03-18T01:36:15.521Z,11.70
2023-03-18T01:38:42.758Z,11.70
2023-03-18T01:41:14.464Z,11.70
2023-03-18T01:43:43.440Z,11.60
2023-03-18T01:46:44.787Z,11.70
2023-03-18T01:49:25.689Z,11.70
2023-03-18T01:52:16.121Z,11.80
2023-03-18T01:54:59.807Z,11.70
2023-03-18T01:57:29.045Z,11.70
2023-03-18T01:59:57.878Z,11.70
2023-03-18T02:02:26.178Z,11.70
2023-03-18T02:05:01.798Z,11.90
2023-03-18T02:07:35.697Z,11.90
2023-03-18T02:10:10.936Z,11.90
2023-03-18T02:12:44.047Z,11.90
2023-03-18T02:15:18.265Z,12.00
2023-03-18T02:17:58.942Z,12.00
2023-03-18T02:21:14.169Z,12.00
2023-03-18T02:24:05.826Z,12.00
2023-03-18T02:26:53.291Z,12.00
2023-03-18T02:29:31.895Z,12.10
2023-03-18T02:32:07.386Z,12.10
2023-03-18T02:34:37.108Z,12.10
2023-03-18T02:37:04.242Z,12.00
2023-03-18T02:39:31.836Z,12.00
2023-03-18T02:42:00.990Z,12.10
2023-03-18T02:44:28.985Z,12.10
2023-03-18T02:47:21.750Z,12.10
2023-03-18T02:49:49.714Z,12.00
2023-03-18T02:52:16.660Z,11.90
2023-03-18T02:54:43.518Z,11.90
2023-03-18T02:57:10.616Z,11.90
2023-03-18T02:59:39.790Z,11.90
2023-03-18T03:02:07.087Z,12.00
2023-03-18T03:04:34.020Z,12.00
2023-03-18T03:07:02.118Z,12.00
2023-03-18T03:09:37.674Z,12.00
2023-03-18T03:12:06.588Z,11.90
2023-03-18T03:14:34.712Z,12.00
2023-03-18T03:17:02.622Z,12.00
2023-03-18T03:19:30.780Z,12.00
2023-03-18T03:21:58.939Z,12.10
2023-03-18T03:24:26.379Z,12.00
2023-03-18T03:26:53.492Z,12.00
2023-03-18T03:29:20.546Z,12.00
2023-03-18T03:31:49.474Z,12.00
2023-03-18T03:34:16.344Z,12.00
2023-03-18T03:36:43.114Z,12.00
2023-03-18T03:39:10.630Z,12.00
2023-03-18T03:41:37.552Z,12.00
2023-03-18T03:44:04.905Z,12.00
2023-03-18T03:46:32.169Z,12.00
2023-03-18T03:48:59.522Z,12.00
2023-03-18T03:51:26.350Z,12.00
2023-03-18T03:53:54.021Z,12.00
2023-03-18T03:56:21.084Z,12.00
2023-03-18T03:58:48.011Z,12.00
2023-03-18T04:01:15.233Z,12.00
2023-03-18T04:03:44.379Z,12.00
2023-03-18T04:06:12.034Z,12.00
2023-03-18T04:08:46.208Z,12.00
2023-03-18T04:11:13.395Z,12.00
2023-03-18T04:13:41.570Z,12.00
2023-03-18T04:16:09.480Z,12.00
2023-03-18T04:18:36.363Z,12.00
2023-03-18T04:21:04.817Z,12.00
2023-03-18T04:23:45.688Z,12.00
2023-03-18T04:26:13.034Z,11.90
2023-03-18T04:28:40.483Z,11.90
2023-03-18T04:31:08.887Z,12.00
2023-03-18T04:33:36.000Z,11.90
2023-03-18T04:36:02.952Z,11.90
2023-03-18T04:38:30.483Z,11.90
2023-03-18T04:40:57.290Z,11.80
2023-03-18T04:43:24.418Z,11.90
2023-03-18T04:45:51.880Z,11.80
2023-03-18T04:48:19.363Z,11.80
2023-03-18T04:50:46.665Z,11.80
2023-03-18T04:53:19.808Z,11.80
2023-03-18T04:55:50.802Z,11.70
2023-03-18T04:58:19.460Z,11.80
2023-03-18T05:00:58.720Z,11.80
2023-03-18T05:03:32.899Z,11.80
2023-03-18T05:06:00.003Z,11.80
2023-03-18T05:08:36.289Z,11.90
2023-03-18T05:11:03.408Z,11.80
2023-03-18T05:13:31.641Z,11.80
2023-03-18T05:15:59.126Z,11.80
2023-03-18T05:18:26.156Z,11.80
2023-03-18T05:20:54.848Z,11.80
2023-03-18T05:23:22.444Z,11.80
2023-03-18T05:25:53.522Z,11.80
2023-03-18T05:28:22.941Z,11.80
2023-03-18T05:31:07.962Z,11.80
2023-03-18T05:33:39.130Z,11.90
2023-03-18T05:36:06.580Z,11.90
2023-03-18T05:38:39.267Z,11.80
2023-03-18T05:41:06.218Z,11.80
2023-03-18T05:43:38.513Z,11.80
2023-03-18T05:46:05.855Z,11.80
2023-03-18T05:48:43.468Z,11.80
2023-03-18T05:51:10.341Z,11.80
2023-03-18T05:53:39.309Z,11.80
2023-03-18T05:56:16.442Z,11.80
2023-03-18T05:58:45.806Z,11.80
2023-03-18T06:01:33.529Z,11.80
2023-03-18T06:04:02.115Z,11.80
2023-03-18T06:06:29.138Z,11.80
2023-03-18T06:08:56.320Z,11.80
2023-03-18T06:11:24.418Z,11.80
2023-03-18T06:13:52.171Z,11.90
2023-03-18T06:16:19.262Z,11.90
2023-03-18T06:18:46.267Z,11.90
2023-03-18T06:21:15.488Z,11.90
2023-03-18T06:23:42.742Z,11.90
2023-03-18T06:26:09.885Z,11.90
2023-03-18T06:28:44.578Z,12.00
2023-03-18T06:31:11.841Z,12.00
2023-03-18T06:33:40.005Z,11.90
2023-03-18T06:36:10.590Z,11.90
2023-03-18T06:38:43.744Z,11.90
2023-03-18T06:41:11.725Z,12.00
2023-03-18T06:43:44.663Z,12.00
2023-03-18T06:46:11.691Z,12.00
2023-03-18T06:48:40.267Z,12.10
2023-03-18T06:51:08.049Z,12.10
2023-03-18T06:53:39.739Z,12.30
2023-03-18T06:56:07.797Z,12.30
2023-03-18T06:58:45.804Z,12.30
2023-03-18T07:01:13.919Z,12.20
2023-03-18T07:03:43.646Z,12.30
2023-03-18T07:06:11.965Z,12.30
2023-03-18T07:08:40.529Z,12.20
2023-03-18T07:11:07.581Z,12.20
2023-03-18T07:13:38.242Z,12.10
2023-03-18T07:16:08.699Z,12.10
2023-03-18T07:18:35.639Z,12.10
2023-03-18T07:21:02.411Z,12.20
2023-03-18T07:23:29.252Z,12.20
2023-03-18T07:25:57.472Z,12.40
2023-03-18T07:28:24.655Z,12.60
2023-03-18T07:30:54.083Z,12.70
2023-03-18T07:33:21.104Z,12.70
2023-03-18T07:35:48.288Z,12.70
2023-03-18T07:38:15.056Z,12.70
2023-03-18T07:40:42.799Z,12.80
2023-03-18T07:43:09.654Z,12.80
2023-03-18T07:45:37.155Z,12.90
2023-03-18T07:48:05.490Z,12.90
2023-03-18T07:50:32.723Z,13.10
2023-03-18T07:52:59.762Z,13.10
2023-03-18T07:55:26.574Z,13.20
2023-03-18T07:57:53.837Z,13.20
2023-03-18T08:00:22.202Z,13.10
2023-03-18T08:02:49.030Z,13.10
2023-03-18T08:05:15.976Z,13.10
2023-03-18T08:07:42.885Z,13.20
2023-03-18T08:10:11.359Z,13.20
2023-03-18T08:12:52.231Z,13.30
2023-03-18T08:15:21.869Z,13.50
2023-03-18T08:17:49.186Z,13.60
2023-03-18T08:20:16.045Z,13.60
2023-03-18T08:22:42.934Z,13.50
2023-03-18T08:25:11.611Z,13.50
2023-03-18T08:27:38.532Z,13.60
2023-03-18T08:30:06.907Z,13.50
2023-03-18T08:32:33.876Z,13.50
2023-03-18T08:35:01.795Z,13.50
2023-03-18T08:37:28.807Z,13.60
2023-03-18T08:39:55.710Z,13.70
2023-03-18T08:42:22.651Z,13.60
2023-03-18T08:44:50.883Z,13.60
2023-03-18T08:47:17.694Z,13.60
2023-03-18T08:49:44.630Z,13.40
2023-03-18T08:52:11.855Z,13.40
2023-03-18T08:54:38.998Z,13.40
2023-03-18T08:57:06.027Z,13.50
2023-03-18T08:59:32.820Z,13.60
2023-03-18T09:01:59.937Z,13.70
2023-03-18T09:04:26.790Z,13.70
2023-03-18T09:06:53.929Z,13.70
2023-03-18T09:09:24.491Z,13.70
2023-03-18T09:11:54.514Z,13.80
2023-03-18T09:14:21.345Z,13.80
2023-03-18T09:16:48.191Z,14.00
2023-03-18T09:19:15.077Z,14.10
2023-03-18T09:21:42.035Z,14.10
2023-03-18T09:24:09.153Z,14.10
2023-03-18T09:26:36.019Z,14.30
2023-03-18T09:29:02.813Z,14.40
2023-03-18T09:31:30.654Z,14.60
2023-03-18T09:33:57.471Z,14.70
2023-03-18T09:36:24.310Z,14.70
2023-03-18T09:38:51.074Z,14.80
2023-03-18T09:41:42.676Z,14.80
2023-03-18T09:44:23.949Z,14.70
2023-03-18T09:47:26.865Z,14.80
2023-03-18T09:50:32.377Z,14.90
2023-03-18T09:53:14.144Z,14.90
2023-03-18T09:55:53.033Z,15.00
2023-03-18T09:58:42.211Z,15.40
2023-03-18T10:01:13.130Z,15.50
2023-03-18T10:04:01.871Z,15.50
2023-03-18T10:06:28.979Z,15.70
2023-03-18T10:09:28.855Z,15.60
2023-03-18T10:12:16.969Z,15.80
2023-03-18T10:15:04.216Z,15.90
2023-03-18T10:17:56.233Z,16.00
2023-03-18T10:20:59.121Z,15.80
2023-03-18T10:23:58.653Z,16.10
2023-03-18T10:26:40.382Z,16.40
2023-03-18T10:29:34.863Z,16.40
2023-03-18T10:32:48.772Z,16.60
2023-03-18T10:36:08.187Z,16.60
2023-03-18T10:38:44.727Z,16.80
2023-03-18T10:41:36.855Z,16.70
2023-03-18T10:44:23.554Z,16.70
2023-03-18T10:47:02.197Z,16.60
2023-03-18T10:49:38.605Z,16.50
2023-03-18T10:52:21.295Z,16.40
2023-03-18T10:54:52.426Z,16.30
2023-03-18T10:57:22.021Z,16.10
2023-03-18T10:59:52.120Z,16.10
2023-03-18T11:02:38.744Z,16.20
2023-03-18T11:05:22.420Z,16.30
2023-03-18T11:08:32.576Z,16.10
2023-03-18T11:11:15.216Z,16.10
2023-03-18T11:13:57.019Z,16.30
2023-03-18T11:16:38.103Z,16.50
2023-03-18T11:19:29.805Z,16.70
2023-03-18T11:22:16.331Z,16.90
2023-03-18T11:24:43.691Z,16.90
2023-03-18T11:27:16.675Z,16.80
2023-03-18T11:29:57.869Z,16.80
2023-03-18T11:32:32.045Z,16.60
2023-03-18T11:35:02.282Z,16.60
2023-03-18T11:37:40.019Z,16.60
2023-03-18T12:00:17.245Z,16.40
2023-03-18T12:03:29.785Z,16.50
2023-03-18T12:06:24.973Z,16.40
2023-03-18T12:09:01.492Z,16.30
2023-03-18T12:12:08.230Z,16.30
2023-03-18T12:14:45.754Z,16.40
2023-03-18T12:17:33.923Z,16.50
2023-03-18T12:20:09.946Z,16.60
2023-03-18T12:23:03.238Z,16.90
2023-03-18T12:25:59.086Z,17.00
2023-03-18T12:29:14.342Z,16.80
2023-03-18T12:31:59.362Z,16.80
2023-03-18T12:34:46.694Z,16.70
2023-03-18T12:38:03.782Z,16.50
2023-03-18T12:41:09.764Z,16.40
2023-03-18T12:43:46.389Z,16.20
2023-03-18T12:46:29.273Z,16.10
2023-03-18T12:49:14.531Z,16.00
2023-03-18T12:52:01.879Z,15.90
2023-03-18T12:54:41.917Z,15.80
2023-03-18T12:57:24.582Z,15.70
2023-03-18T13:00:06.675Z,15.60
2023-03-18T13:03:30.998Z,15.50
2023-03-18T13:06:10.057Z,15.60
2023-03-18T13:08:57.329Z,15.70
2023-03-18T13:11:48.201Z,15.70
2023-03-18T13:14:50.335Z,15.70
2023-03-18T13:17:29.554Z,15.80
2023-03-18T13:20:11.019Z,15.70
2023-03-18T13:22:43.909Z,15.80
2023-03-18T13:25:20.025Z,15.90
2023-03-18T13:28:26.766Z,16.10
2023-03-18T13:31:17.339Z,16.10
2023-03-18T13:34:36.651Z,16.30
2023-03-18T13:37:32.818Z,16.50
2023-03-18T13:40:20.234Z,16.50
2023-03-18T13:42:51.183Z,16.60
2023-03-18T13:45:37.662Z,16.60
2023-03-18T13:48:34.646Z,16.40
2023-03-18T13:51:21.728Z,16.40
2023-03-18T13:53:50.547Z,16.40
2023-03-18T13:56:33.790Z,16.30
2023-03-18T13:59:06.423Z,16.30
2023-03-18T14:01:36.347Z,16.40
2023-03-18T14:04:44.097Z,16.40
2023-03-18T14:07:22.403Z,16.40
2023-03-18T14:10:18.301Z,16.40
2023-03-18T14:12:49.692Z,16.50
2023-03-18T14:15:39.615Z,16.30
2023-03-18T14:18:27.266Z,16.30
2023-03-18T14:21:01.476Z,16.20
2023-03-18T14:24:15.965Z,16.40
2023-03-18T14:26:58.249Z,16.60
2023-03-18T14:29:31.082Z,16.70
2023-03-18T14:32:00.922Z,16.60
2023-03-18T14:34:33.380Z,16.40
2023-03-18T14:37:00.205Z,16.40
2023-03-18T14:39:44.004Z,16.40
2023-03-18T14:42:35.353Z,16.40
2023-03-18T14:45:41.419Z,16.10
2023-03-18T14:48:21.400Z,16.20
2023-03-18T14:50:52.393Z,16.00
2023-03-18T14:53:30.923Z,16.10
2023-03-18T14:55:58.989Z,16.10
2023-03-18T14:58:28.043Z,16.20
2023-03-18T15:01:09.023Z,16.10
2023-03-18T15:03:40.635Z,16.20
2023-03-18T15:06:08.262Z,16.20
2023-03-18T15:08:48.238Z,16.20
2023-03-18T15:11:18.702Z,16.20
2023-03-18T15:13:46.247Z,16.20
2023-03-18T15:16:23.542Z,16.10
2023-03-18T15:18:55.909Z,16.10
2023-03-18T15:21:35.516Z,16.00
2023-03-18T15:24:08.152Z,16.00
2023-03-18T15:26:39.858Z,16.00
2023-03-18T15:29:35.733Z,16.10
2023-03-18T15:32:32.287Z,16.10
2023-03-18T15:35:10.678Z,16.20
2023-03-18T15:37:43.813Z,16.20
2023-03-18T15:40:29.854Z,16.30
2023-03-18T15:43:04.457Z,16.20
2023-03-18T15:45:33.565Z,16.10
2023-03-18T15:48:24.446Z,16.10
2023-03-18T15:50:58.786Z,16.20
2023-03-18T15:53:39.728Z,16.10
2023-03-18T15:56:31.720Z,16.10
2023-03-18T15:59:12.038Z,16.00
2023-03-18T16:01:40.131Z,16.00
2023-03-18T16:04:13.700Z,16.00
2023-03-18T16:06:40.591Z,15.90
2023-03-18T16:09:24.293Z,16.10
2023-03-18T16:12:00.333Z,16.00
2023-03-18T16:14:42.788Z,16.00
2023-03-18T16:17:21.136Z,15.90
2023-03-18T16:19:53.753Z,15.80
2023-03-18T16:22:20.825Z,15.80
2023-03-18T16:24:47.845Z,15.80
2023-03-18T16:27:39.861Z,15.90
2023-03-18T16:30:17.929Z,15.80
2023-03-18T16:32:45.944Z,15.80
2023-03-18T16:35:19.331Z,15.80
2023-03-18T16:37:48.360Z,15.70
2023-03-18T16:40:17.575Z,15.80
2023-03-18T16:42:47.873Z,15.70
2023-03-18T16:45:22.456Z,15.60
2023-03-18T16:47:51.865Z,15.50
2023-03-18T16:50:23.147Z,15.50
2023-03-18T16:52:50.687Z,15.60
2023-03-18T16:55:19.228Z,15.50
2023-03-18T16:58:03.805Z,15.40
2023-03-18T17:00:32.687Z,15.30
2023-03-18T17:03:01.496Z,15.30
2023-03-18T17:05:29.075Z,15.30
2023-03-18T17:07:55.996Z,15.30
2023-03-18T17:10:26.297Z,15.20
2023-03-18T17:12:59.501Z,15.20
2023-03-18T17:15:32.393Z,15.20
2023-03-18T17:17:59.965Z,15.00
2023-03-18T17:20:32.299Z,15.00
2023-03-18T17:23:00.984Z,15.00
2023-03-18T17:25:30.762Z,14.90
2023-03-18T17:28:06.859Z,14.90
2023-03-18T17:30:39.720Z,14.90
2023-03-18T17:33:27.067Z,14.80
2023-03-18T17:35:55.010Z,14.80
2023-03-18T17:38:22.237Z,14.70
2023-03-18T17:40:50.424Z,14.70
2023-03-18T17:43:36.907Z,14.70
2023-03-18T17:46:05.316Z,14.70
2023-03-18T17:48:38.135Z,14.70
2023-03-18T17:51:13.658Z,14.80
2023-03-18T17:53:51.308Z,14.60
2023-03-18T17:56:20.141Z,14.60
2023-03-18T17:58:51.146Z,14.50
2023-03-18T18:01:26.624Z,14.60
2023-03-18T18:03:57.013Z,14.60
2023-03-18T18:06:28.869Z,14.50
2023-03-18T18:09:00.097Z,14.40
2023-03-18T18:11:32.415Z,14.40
2023-03-18T18:14:39.785Z,14.40
2023-03-18T18:17:15.876Z,14.30
2023-03-18T18:19:44.054Z,14.40
2023-03-18T18:22:17.706Z,14.40
2023-03-18T18:24:46.952Z,14.40
2023-03-18T18:27:15.326Z,14.20
2023-03-18T18:29:49.052Z,14.10
2023-03-18T18:32:16.297Z,14.20
2023-03-18T18:34:43.253Z,14.30
2023-03-18T18:37:10.281Z,14.30
2023-03-18T18:39:37.138Z,14.20
2023-03-18T18:42:04.450Z,14.30
2023-03-18T18:44:31.680Z,14.30
2023-03-18T18:46:58.770Z,14.30
2023-03-18T18:49:25.878Z,14.30
2023-03-18T18:51:55.615Z,14.30
2023-03-18T18:54:24.430Z,14.30
2023-03-18T18:56:52.191Z,14.30
2023-03-18T18:59:23.145Z,14.30
2023-03-18T19:01:51.293Z,14.30
2023-03-18T19:04:18.186Z,14.30
2023-03-18T19:06:46.260Z,14.30
2023-03-18T19:09:20.850Z,14.30
2023-03-18T19:11:49.378Z,14.30
2023-03-18T19:14:26.207Z,14.40
2023-03-18T19:16:58.222Z,14.40
2023-03-18T19:19:29.387Z,14.40
2023-03-18T19:21:57.340Z,14.40
2023-03-18T19:24:30.515Z,14.40
2023-03-18T19:27:02.494Z,14.40
2023-03-18T19:29:30.574Z,14.40
2023-03-18T19:31:57.583Z,14.40
2023-03-18T19:34:24.962Z,14.40
2023-03-18T19:36:56.136Z,14.40
2023-03-18T19:39:23.224Z,14.40
2023-03-18T19:41:51.374Z,14.50
2023-03-18T19:44:26.094Z,14.40
2023-03-18T19:46:56.276Z,14.50
2023-03-18T19:49:35.489Z,14.40
2023-03-18T19:52:15.316Z,14.30
2023-03-18T19:54:48.169Z,14.30
2023-03-18T19:57:24.387Z,14.30
2023-03-18T19:59:53.715Z,14.20
2023-03-18T20:02:27.392Z,14.10
2023-03-18T20:04:58.135Z,14.10
2023-03-18T20:07:29.881Z,14.00
2023-03-18T20:09:57.191Z,13.90
2023-03-18T20:12:36.432Z,13.80
2023-03-18T20:15:14.798Z,13.70
2023-03-18T20:17:45.625Z,13.50
2023-03-18T20:20:24.091Z,13.50
2023-03-18T20:23:17.544Z,13.50
2023-03-18T20:25:46.718Z,13.40
2023-03-18T20:28:17.618Z,13.40
2023-03-18T20:30:46.638Z,13.30
2023-03-18T20:33:13.801Z,13.20
2023-03-18T20:35:44.179Z,13.20
2023-03-18T20:38:28.300Z,13.20
2023-03-18T20:40:55.613Z,13.20
2023-03-18T20:43:25.451Z,13.10
2023-03-18T20:45:52.920Z,13.10
2023-03-18T20:48:22.250Z,13.10
2023-03-18T20:50:50.585Z,13.10
2023-03-18T20:53:21.813Z,13.00
2023-03-18T20:55:49.597Z,13.00
2023-03-18T20:58:22.191Z,12.90
2023-03-18T21:00:50.724Z,12.90
2023-03-18T21:03:23.793Z,12.80
2023-03-18T21:05:52.967Z,12.80
2023-03-18T21:08:20.118Z,12.90
2023-03-18T21:10:46.898Z,12.80
2023-03-18T21:13:38.011Z,12.80
2023-03-18T21:16:10.759Z,12.70
2023-03-18T21:18:37.729Z,12.70
2023-03-18T21:21:04.776Z,12.70
2023-03-18T21:23:34.437Z,12.70
2023-03-18T21:26:01.953Z,12.70
2023-03-18T21:28:30.509Z,12.70
2023-03-18T21:30:58.582Z,12.70
2023-03-18T21:33:35.020Z,12.70
2023-03-18T21:36:02.749Z,12.60
2023-03-18T21:38:32.340Z,12.60
2023-03-18T21:41:01.575Z,12.60
2023-03-18T21:43:40.339Z,12.60
2023-03-18T21:46:15.376Z,12.60
2023-03-18T21:48:42.226Z,12.60
2023-03-18T21:51:38.493Z,12.60
2023-03-18T21:54:22.708Z,12.50
2023-03-18T21:56:49.518Z,12.50
2023-03-18T21:59:16.330Z,12.50
2023-03-18T22:01:43.099Z,12.60
2023-03-18T22:04:09.926Z,12.60
2023-03-18T22:06:37.210Z,12.60
2023-03-18T22:09:04.122Z,12.60
2023-03-18T22:11:31.530Z,12.60
2023-03-18T22:13:58.342Z,12.60
2023-03-18T22:16:25.295Z,12.60
2023-03-18T22:18:52.335Z,12.60
2023-03-18T22:21:27.563Z,12.70
2023-03-18T22:23:57.942Z,12.60
2023-03-18T22:26:24.808Z,12.70
2023-03-18T22:28:51.675Z,12.70
2023-03-18T22:31:26.667Z,12.70
2023-03-18T22:33:54.153Z,12.70
2023-03-18T22:36:22.486Z,12.70
2023-03-18T22:38:49.956Z,12.70
2023-03-18T22:41:21.062Z,12.70
2023-03-18T22:43:49.095Z,12.70
2023-03-18T22:46:16.058Z,12.70
2023-03-18T22:48:43.348Z,12.70
2023-03-18T22:51:27.508Z,12.70
2023-03-18T22:53:55.242Z,12.70
2023-03-18T22:56:23.205Z,12.70
2023-03-18T22:58:51.172Z,12.70
2023-03-18T23:01:26.440Z,12.70
2023-03-18T23:03:53.189Z,12.70
2023-03-18T23:06:23.758Z,12.60
2023-03-18T23:08:50.738Z,12.60
2023-03-18T23:11:18.286Z,12.50
2023-03-18T23:13:49.929Z,12.50
2023-03-18T23:16:21.137Z,12.50
2023-03-18T23:18:49.297Z,12.50
2023-03-18T23:21:25.435Z,12.50
2023-03-18T23:23:54.307Z,12.40
2023-03-18T23:26:21.490Z,12.40
2023-03-18T23:28:48.982Z,12.50
2023-03-18T23:31:16.747Z,12.50
2023-03-18T23:33:44.676Z,12.50
2023-03-18T23:36:12.140Z,12.50
2023-03-18T23:38:39.248Z,12.50
2023-03-18T23:41:07.158Z,12.50
2023-03-18T23:43:34.094Z,12.50
2023-03-18T23:46:02.156Z,12.50
2023-03-18T23:48:29.356Z,12.50
2023-03-18T23:50:56.172Z,12.50
2023-03-18T23:53:23.094Z,12.50
2023-03-18T23:55:50.212Z,12.40
2023-03-18T23:58:17.080Z,12.50
